Time;durP1;ratioP1;P1;durP2;ratioP2;P2;SDS_P1;SDS_P2;PMS_P1;PMS_P2;Temp;Humidity;BMP_temperature;BMP_pressure;BME280_temperature;BME280_humidity;BME280_pressure;Samples;Min_cycle;Max_cycle;Signal;HPM_P1;HPM_P2
2022/06/27 00:00:53;;;;;;;10.25;6.70;;;;;;;19.64;95.63;100199.59;5068290;28;20051;-29
2022/06/27 00:03:18;;;;;;;8.95;6.43;;;;;;;19.53;94.92;100198.00;5067742;28;20116;-30
2022/06/27 00:05:43;;;;;;;8.93;6.30;;;;;;;19.24;96.35;100201.31;5087384;28;20030;-28
2022/06/27 00:08:09;;;;;;;8.15;6.45;;;;;;;19.34;95.50;100180.75;5086918;28;20032;-36
2022/06/27 00:10:35;;;;;;;8.35;6.43;;;;;;;19.32;95.62;100196.44;5086795;28;20028;-29
2022/06/27 00:13:00;;;;;;;9.55;6.50;;;;;;;19.25;97.69;100207.56;5086656;28;20161;-32
2022/06/27 00:15:26;;;;;;;10.25;6.97;;;;;;;19.15;97.65;100204.88;5086550;28;20066;-30
2022/06/27 00:17:52;;;;;;;9.20;7.22;;;;;;;19.00;98.31;100182.19;5068316;28;20036;-34
2022/06/27 00:20:17;;;;;;;8.57;7.15;;;;;;;18.83;98.84;100184.34;5086770;28;20028;-36
2022/06/27 00:22:43;;;;;;;11.68;7.93;;;;;;;19.00;99.44;100194.84;5086656;28;20024;-29
2022/06/27 00:25:10;;;;;;;12.30;8.52;;;;;;;18.98;100.00;100197.03;5086168;28;20024;-29
2022/06/27 00:27:37;;;;;;;15.67;8.30;;;;;;;18.92;100.00;100190.84;5071124;28;20028;-29
2022/06/27 00:30:04;;;;;;;13.95;8.45;;;;;;;18.99;100.00;100195.97;5071759;28;20046;-37
2022/06/27 00:32:29;;;;;;;24.65;8.93;;;;;;;19.15;99.36;100192.16;5071487;28;20028;-34
2022/06/27 00:34:55;;;;;;;15.27;8.32;;;;;;;18.92;100.00;100187.31;5090290;28;20552;-28
2022/06/27 00:37:20;;;;;;;60.85;11.05;;;;;;;18.87;100.00;100186.22;5071627;28;20028;-29
2022/06/27 00:39:46;;;;;;;59.97;10.75;;;;;;;18.59;100.00;100198.38;5090020;28;20036;-29
2022/06/27 00:42:11;;;;;;;81.47;11.85;;;;;;;18.83;100.00;100179.75;5089710;28;20028;-29
2022/06/27 00:44:41;;;;;;;23.08;9.70;;;;;;;18.93;100.00;100200.56;5090009;28;20085;-31
2022/06/27 00:47:09;;;;;;;51.00;9.40;;;;;;;18.78;99.05;100187.81;5071039;28;20032;-31
2022/06/27 00:49:35;;;;;;;;;;;;;;;18.84;99.13;100208.41;5072065;28;20027;-29
2022/06/27 00:52:04;;;;;;;15.02;7.53;;;;;;;18.59;100.00;100184.88;5071467;28;20396;-29
2022/06/27 00:54:30;;;;;;;21.13;7.85;;;;;;;18.65;100.00;100185.66;5089790;28;20039;-29
2022/06/27 00:56:56;;;;;;;38.33;7.70;;;;;;;18.74;100.00;100197.56;5089588;28;20028;-29
2022/06/27 00:59:22;;;;;;;23.35;7.03;;;;;;;18.51;100.00;100171.91;5070862;28;20332;-31
2022/06/27 01:01:49;;;;;;;23.98;6.78;;;;;;;18.56;100.00;100179.97;5070518;28;20102;-34
2022/06/27 01:04:14;;;;;;;32.58;7.82;;;;;;;18.45;100.00;100181.88;5071041;28;20035;-34
2022/06/27 01:06:40;;;;;;;32.55;8.60;;;;;;;18.26;100.00;100172.66;5089605;28;20020;-29
2022/06/27 01:09:06;;;;;;;16.23;8.73;;;;;;;18.00;100.00;100167.22;5070827;28;20047;-29
2022/06/27 01:11:31;;;;;;;14.80;8.65;;;;;;;18.20;100.00;100176.41;5071231;28;20529;-31
2022/06/27 01:13:58;;;;;;;12.85;9.80;;;;;;;18.15;100.00;100168.31;5070935;28;20117;-37
2022/06/27 01:16:23;;;;;;;12.35;9.05;;;;;;;18.15;100.00;100168.31;5070865;28;20088;-36
2022/06/27 01:18:50;;;;;;;12.23;8.32;;;;;;;18.34;100.00;100190.22;5071127;28;20020;-30
2022/06/27 01:21:23;;;;;;;12.90;8.93;;;;;;;18.62;100.00;100180.81;5088756;28;20036;-29
2022/06/27 01:23:50;;;;;;;12.63;8.70;;;;;;;18.62;100.00;100188.91;5070738;28;20036;-30
2022/06/27 01:26:17;;;;;;;14.05;9.10;;;;;;;18.51;100.00;100187.25;5088834;28;20043;-32
2022/06/27 01:28:43;;;;;;;10.52;8.90;;;;;;;18.53;100.00;100185.94;5088691;28;20119;-30
2022/06/27 01:31:13;;;;;;;14.18;9.00;;;;;;;18.31;100.00;100167.28;5070205;28;20036;-30
2022/06/27 01:33:39;;;;;;;12.90;8.50;;;;;;;18.25;100.00;100196.13;5070662;28;20035;-32
2022/06/27 01:38:55;;;;;;;16.10;8.85;;;;;;;18.72;100.00;100202.41;5088930;28;20036;-29
2022/06/27 01:41:21;;;;;;;11.02;8.60;;;;;;;18.67;100.00;100187.03;5069764;28;20093;-29
2022/06/27 01:43:47;;;;;;;10.85;8.70;;;;;;;18.80;100.00;100201.09;5070409;28;20092;-30
2022/06/27 01:46:14;;;;;;;11.43;7.88;;;;;;;18.59;100.00;100189.44;5070319;28;20131;-34
2022/06/27 01:48:40;;;;;;;11.80;8.02;;;;;;;18.69;99.44;100200.25;5070228;28;20036;-31
2022/06/27 01:51:10;;;;;;;11.63;7.53;;;;;;;18.34;100.00;100182.91;5088071;28;20082;-34
2022/06/27 01:53:39;;;;;;;9.07;7.15;;;;;;;18.51;100.00;100193.50;5070056;28;20500;-29
2022/06/27 01:56:05;;;;;;;10.65;7.60;;;;;;;18.64;98.83;100194.84;5088782;28;20032;-33
2022/06/27 01:58:31;;;;;;;10.35;6.78;;;;;;;18.56;100.00;100198.09;5088636;28;20032;-30
2022/06/27 02:00:58;;;;;;;11.98;7.15;;;;;;;18.59;99.17;100200.22;5070058;28;20024;-36
2022/06/27 02:03:23;;;;;;;9.35;7.22;;;;;;;18.45;99.77;100189.16;5069424;28;20814;-31
2022/06/27 02:05:51;;;;;;;8.65;6.85;;;;;;;18.52;100.00;100205.91;5088098;28;20032;-30
2022/06/27 02:08:20;;;;;;;14.73;7.18;;;;;;;18.52;99.74;100188.91;5069444;28;20024;-30
2022/06/27 02:10:46;;;;;;;10.20;7.00;;;;;;;18.62;99.35;100199.72;5069957;28;20020;-33
2022/06/27 02:13:12;;;;;;;13.13;6.97;;;;;;;18.61;99.24;100192.66;5087824;28;20035;-29
2022/06/27 02:16:02;;;;;;;8.95;7.07;;;;;;;18.54;99.76;100197.53;5069628;28;20032;-30
2022/06/27 02:18:27;;;;;;;12.70;6.55;;;;;;;18.48;98.63;100185.91;5069500;28;20495;-32
2022/06/27 02:20:53;;;;;;;9.30;5.82;;;;;;;18.42;97.76;100195.88;5069395;28;20086;-28
2022/06/27 02:23:19;;;;;;;10.95;6.07;;;;;;;18.21;98.01;100172.66;5069211;28;20065;-32
2022/06/27 02:25:45;;;;;;;9.07;6.38;;;;;;;18.17;97.97;100176.97;5088222;28;20153;-29
2022/06/27 02:28:13;;;;;;;13.57;6.10;;;;;;;18.35;98.35;100200.75;5069416;28;20122;-31
2022/06/27 02:30:38;;;;;;;11.75;6.20;;;;;;;18.36;97.71;100186.16;5069282;28;20107;-30
2022/06/27 02:33:04;;;;;;;11.13;6.07;;;;;;;18.27;97.97;100193.97;5087417;28;20118;-31
2022/06/27 02:35:31;;;;;;;8.95;6.10;;;;;;;18.26;99.67;100203.16;5087450;28;20474;-32
2022/06/27 02:37:57;;;;;;;14.27;5.97;;;;;;;18.27;98.96;100199.38;5069514;28;20089;-29
2022/06/27 02:40:23;;;;;;;9.95;6.75;;;;;;;18.24;97.09;100209.91;5087994;28;20028;-31
2022/06/27 02:42:53;;;;;;;8.98;6.30;;;;;;;18.26;98.91;100215.84;5069349;28;20226;-30
2022/06/27 02:45:19;;;;;;;11.73;6.03;;;;;;;17.99;100.00;100208.75;5087073;28;20050;-30
2022/06/27 02:47:47;;;;;;;11.45;6.15;;;;;;;17.99;98.62;100192.56;5087424;28;20028;-34
2022/06/27 02:50:13;;;;;;;10.45;5.65;;;;;;;17.96;100.00;100198.50;5068680;28;20030;-29
2022/06/27 02:52:44;;;;;;;10.45;6.60;;;;;;;17.87;100.00;100221.66;5087556;28;20099;-31
2022/06/27 02:55:17;;;;;;;8.05;6.13;;;;;;;17.39;100.00;100215.44;5086987;28;20538;-29
2022/06/27 02:57:59;;;;;;;13.00;6.72;;;;;;;17.36;100.00;100210.56;5087310;28;20032;-30
2022/06/27 03:00:29;;;;;;;11.88;6.85;;;;;;;17.86;100.00;100218.16;5068908;28;20050;-30
2022/06/27 03:02:56;;;;;;;9.20;6.68;;;;;;;17.93;99.59;100209.81;5068651;28;20576;-31
2022/06/27 03:05:22;;;;;;;15.38;6.88;;;;;;;18.19;99.76;100228.78;5068778;28;20407;-30
2022/06/27 03:07:48;;;;;;;10.65;6.22;;;;;;;18.05;100.00;100218.47;5068840;28;20036;-30
2022/06/27 03:10:14;;;;;;;13.93;6.72;;;;;;;18.21;100.00;100221.25;5087437;28;20031;-32
2022/06/27 03:12:41;;;;;;;11.23;6.78;;;;;;;17.95;100.00;100231.94;5087249;28;20040;-31
2022/06/27 03:15:07;;;;;;;9.30;6.13;;;;;;;18.03;100.00;100214.44;5068444;28;20028;-36
2022/06/27 03:17:33;;;;;;;11.25;6.07;;;;;;;18.36;100.00;100212.34;5069071;28;20064;-30
2022/06/27 03:19:58;;;;;;;10.23;6.35;;;;;;;18.63;98.63;100209.41;5087399;28;20063;-29
2022/06/27 03:22:24;;;;;;;9.85;5.95;;;;;;;18.67;98.90;100221.31;5087011;28;20024;-30
2022/06/27 03:24:49;;;;;;;10.80;5.78;;;;;;;18.37;99.16;100220.19;5087227;28;20032;-33
2022/06/27 03:27:15;;;;;;;10.05;5.97;;;;;;;18.18;98.38;100202.88;5086873;28;20051;-29
2022/06/27 03:29:40;;;;;;;10.43;6.80;;;;;;;18.13;99.43;100216.34;5086494;28;20028;-31
2022/06/27 03:32:07;;;;;;;11.73;6.10;;;;;;;18.17;99.41;100201.25;5068197;28;20032;-34
2022/06/27 03:34:33;;;;;;;17.20;9.07;;;;;;;18.22;100.00;100210.16;5068202;28;20047;-29
2022/06/27 03:36:58;;;;;;;15.95;9.07;;;;;;;18.38;100.00;100226.41;5067764;28;20456;-29
2022/06/27 03:39:24;;;;;;;15.82;8.50;;;;;;;18.58;99.65;100231.03;5085991;28;20103;-29
2022/06/27 03:41:50;;;;;;;11.00;7.38;;;;;;;18.53;100.00;100217.50;5086318;28;20030;-29
2022/06/27 03:44:16;;;;;;;14.68;6.88;;;;;;;18.59;100.00;100222.69;5067809;28;20380;-29
2022/06/27 03:46:42;;;;;;;12.27;8.15;;;;;;;18.46;100.00;100234.78;5087132;28;20085;-32
2022/06/27 03:51:53;;;;;;;12.25;6.82;;;;;;;18.65;100.00;100221.59;5086920;28;20039;-30
2022/06/27 03:54:18;;;;;;;13.65;7.78;;;;;;;19.07;99.42;100238.66;5068438;28;20024;-33
2022/06/27 03:56:44;;;;;;;15.63;9.40;;;;;;;19.02;99.65;100234.06;5086623;28;20400;-29
2022/06/27 03:59:10;;;;;;;17.80;9.05;;;;;;;19.22;98.54;100227.81;5086678;28;20028;-31
2022/06/27 04:01:35;;;;;;;14.15;9.20;;;;;;;19.17;100.00;100244.06;5087605;28;20491;-30
2022/06/27 04:04:02;;;;;;;14.90;9.43;;;;;;;19.22;100.00;100244.03;5090675;28;20426;-31
2022/06/27 04:06:27;;;;;;;15.45;9.93;;;;;;;19.12;100.00;100229.72;5072303;28;20069;-36
2022/06/27 04:08:53;;;;;;;18.13;10.65;;;;;;;19.05;100.00;100230.00;5090501;28;20056;-33
2022/06/27 04:11:18;;;;;;;21.30;10.63;;;;;;;19.03;100.00;100226.75;5090095;28;20611;-31
2022/06/27 04:13:44;;;;;;;19.65;12.30;;;;;;;19.22;100.00;100246.75;5090423;28;20043;-29
2022/06/27 04:16:09;;;;;;;20.08;12.07;;;;;;;19.23;100.00;100237.56;5071965;28;20194;-31
2022/06/27 04:18:35;;;;;;;21.48;12.05;;;;;;;19.19;100.00;100241.09;5090241;28;20024;-31
2022/06/27 04:21:00;;;;;;;22.25;11.70;;;;;;;19.42;100.00;100239.69;5090085;28;20560;-29
2022/06/27 04:23:26;;;;;;;16.23;11.65;;;;;;;19.41;100.00;100238.06;5071361;28;20027;-29
2022/06/27 04:25:52;;;;;;;17.52;12.48;;;;;;;19.51;100.00;100238.03;5089626;28;20065;-31
2022/06/27 04:28:18;;;;;;;13.98;11.52;;;;;;;19.64;100.00;100217.75;5071699;28;20032;-33
2022/06/27 04:30:44;;;;;;;17.52;11.45;;;;;;;19.79;100.00;100236.66;5090157;28;20028;-30
2022/06/27 04:33:10;;;;;;;18.85;12.38;;;;;;;19.96;100.00;100244.44;5071320;28;20032;-31
2022/06/27 04:35:36;;;;;;;17.63;11.48;;;;;;;20.02;100.00;100224.38;5071287;28;20043;-29
2022/06/27 04:38:02;;;;;;;14.35;10.93;;;;;;;19.98;100.00;100242.28;5089834;28;20025;-29
2022/06/27 04:40:28;;;;;;;15.98;11.73;;;;;;;19.86;100.00;100248.00;5089711;28;20634;-34
2022/06/27 04:42:56;;;;;;;16.63;11.57;;;;;;;19.84;99.83;100233.13;5071729;28;20115;-29
2022/06/27 04:45:22;;;;;;;19.00;11.80;;;;;;;20.03;100.00;100261.19;5089651;28;20039;-31
2022/06/27 04:47:49;;;;;;;18.52;12.73;;;;;;;20.09;100.00;100250.34;5071527;28;20032;-30
2022/06/27 04:50:19;;;;;;;14.68;12.50;;;;;;;20.24;100.00;100252.97;5071623;28;20028;-32
2022/06/27 04:52:48;;;;;;;20.67;13.55;;;;;;;20.30;99.79;100257.28;5089675;28;20081;-30
2022/06/27 04:55:13;;;;;;;19.85;15.23;;;;;;;20.43;100.00;100253.97;5089429;28;20120;-31
2022/06/27 04:57:42;;;;;;;22.00;15.00;;;;;;;20.10;100.00;100243.84;5089760;28;20051;-31
2022/06/27 05:00:13;;;;;;;19.50;15.70;;;;;;;20.34;100.00;100255.63;5071344;28;20123;-30
2022/06/27 05:02:39;;;;;;;23.70;15.43;;;;;;;20.43;100.00;100253.13;5089094;28;20076;-34
2022/06/27 05:05:06;;;;;;;22.75;15.60;;;;;;;20.38;100.00;100255.88;5070832;28;20028;-29
2022/06/27 05:07:31;;;;;;;21.40;15.63;;;;;;;20.27;100.00;100249.72;5070867;28;20047;-29
2022/06/27 05:09:58;;;;;;;23.52;16.45;;;;;;;20.39;100.00;100225.81;5089104;28;20798;-30
2022/06/27 05:12:24;;;;;;;22.83;15.52;;;;;;;20.79;100.00;100240.19;5070648;28;20035;-31
2022/06/27 05:14:51;;;;;;;19.13;14.90;;;;;;;20.77;100.00;100234.25;5089216;28;20510;-29
2022/06/27 05:17:16;;;;;;;21.85;15.63;;;;;;;20.76;100.00;100245.34;5089016;28;20039;-29
2022/06/27 05:19:42;;;;;;;24.02;16.67;;;;;;;20.78;100.00;100248.59;5089021;28;20106;-29
2022/06/27 05:22:08;;;;;;;23.30;16.58;;;;;;;20.77;100.00;100245.09;5089070;28;20402;-29
2022/06/27 05:24:34;;;;;;;21.27;16.10;;;;;;;20.91;100.00;100244.44;5088919;28;20472;-33
2022/06/27 05:26:59;;;;;;;23.25;16.80;;;;;;;21.05;99.38;100250.84;5089012;28;20036;-31
2022/06/27 05:29:26;;;;;;;20.52;15.43;;;;;;;21.19;98.51;100259.94;5088835;28;20027;-29
2022/06/27 05:31:51;;;;;;;18.83;14.95;;;;;;;21.11;99.62;100252.41;5070584;28;20028;-30
2022/06/27 05:34:17;;;;;;;20.60;13.02;;;;;;;21.31;97.65;100273.13;5088920;28;20034;-29
2022/06/27 05:36:43;;;;;;;17.63;12.15;;;;;;;21.01;96.74;100263.34;5070248;28;20077;-29
2022/06/27 05:39:09;;;;;;;16.50;12.85;;;;;;;21.03;100.00;100269.31;5070483;28;20111;-30
2022/06/27 05:41:37;;;;;;;17.60;13.20;;;;;;;21.33;98.98;100270.09;5088914;28;20119;-34
2022/06/27 05:44:03;;;;;;;18.80;13.48;;;;;;;21.44;98.18;100260.81;5070205;28;20541;-36
2022/06/27 05:46:28;;;;;;;15.35;13.23;;;;;;;21.51;96.75;100255.84;5088601;28;20055;-31
2022/06/27 05:48:54;;;;;;;18.58;14.55;;;;;;;21.67;96.29;100265.44;5088402;28;20136;-30
2022/06/27 05:51:20;;;;;;;16.30;14.60;;;;;;;21.75;95.63;100255.06;5069790;28;20096;-34
2022/06/27 05:53:49;;;;;;;19.02;17.02;;;;;;;21.87;95.27;100247.31;5088484;28;20024;-34
2022/06/27 05:56:15;;;;;;;16.98;15.15;;;;;;;21.84;93.78;100253.31;5088579;28;20031;-30
2022/06/27 05:58:42;;;;;;;15.70;13.32;;;;;;;21.84;95.30;100275.03;5070169;28;20088;-29
2022/06/27 06:01:09;;;;;;;16.52;14.07;;;;;;;21.81;94.91;100264.78;5088076;28;20060;-29
2022/06/27 06:03:36;;;;;;;17.98;15.55;;;;;;;22.06;95.97;100278.03;5069707;28;20075;-32
2022/06/27 06:06:02;;;;;;;14.38;12.68;;;;;;;21.97;93.95;100249.91;5070246;28;20472;-36
2022/06/27 06:08:27;;;;;;;15.52;13.15;;;;;;;22.31;92.51;100278.03;5069959;28;20130;-29
2022/06/27 06:10:53;;;;;;;16.38;12.90;;;;;;;22.24;93.08;100275.69;5088269;28;20111;-29
2022/06/27 06:13:19;;;;;;;16.58;13.63;;;;;;;22.32;93.69;100268.78;5069645;28;20039;-34
2022/06/27 06:15:45;;;;;;;16.45;14.20;;;;;;;22.41;90.99;100253.44;5088229;28;20081;-28
2022/06/27 06:18:11;;;;;;;17.00;12.50;;;;;;;22.17;92.67;100253.44;5069835;28;20031;-29
2022/06/27 06:20:37;;;;;;;15.82;13.02;;;;;;;22.14;94.25;100275.78;5070086;28;20020;-28
2022/06/27 06:23:03;;;;;;;12.70;11.40;;;;;;;22.14;90.59;100268.44;5087717;28;20063;-32
2022/06/27 06:25:29;;;;;;;14.82;11.20;;;;;;;22.19;91.28;100273.81;5087310;28;20059;-31
2022/06/27 06:28:01;;;;;;;17.17;12.00;;;;;;;22.13;91.69;100257.84;5087961;28;20510;-35
2022/06/27 06:30:29;;;;;;;13.52;11.52;;;;;;;22.31;91.82;100256.28;5087836;28;20026;-29
2022/06/27 06:32:56;;;;;;;15.73;13.02;;;;;;;22.63;91.44;100274.59;5069467;28;20031;-32
2022/06/27 06:35:23;;;;;;;13.43;10.77;;;;;;;22.74;89.25;100270.63;5087549;28;20043;-30
2022/06/27 06:37:51;;;;;;;12.10;9.93;;;;;;;22.67;90.00;100271.00;5069387;28;20027;-29
2022/06/27 06:40:16;;;;;;;12.60;9.57;;;;;;;22.60;86.95;100276.00;5087748;28;20032;-33
2022/06/27 06:42:42;;;;;;;14.27;10.43;;;;;;;22.51;89.83;100255.22;5087498;28;20568;-29
2022/06/27 06:45:08;;;;;;;13.43;10.60;;;;;;;23.01;90.96;100280.84;5069004;28;20020;-30
2022/06/27 06:47:42;;;;;;;11.70;9.77;;;;;;;23.43;84.89;100287.19;5069031;28;20058;-28
2022/06/27 06:50:10;;;;;;;14.82;10.25;;;;;;;23.60;83.87;100269.47;5069423;28;20024;-29
2022/06/27 06:52:38;;;;;;;11.23;9.82;;;;;;;23.68;83.21;100287.84;5069177;28;20023;-29
2022/06/27 06:55:04;;;;;;;12.93;10.15;;;;;;;23.86;85.00;100283.44;5068979;28;20089;-33
2022/06/27 06:57:29;;;;;;;14.50;9.95;;;;;;;23.84;83.35;100280.22;5087431;28;20028;-32
2022/06/27 06:59:55;;;;;;;12.15;10.18;;;;;;;23.64;83.84;100287.66;5087296;28;20030;-29
2022/06/27 07:02:21;;;;;;;13.50;10.35;;;;;;;23.84;84.48;100291.09;5087408;28;20056;-34
2022/06/27 07:04:47;;;;;;;46.05;16.08;;;;;;;23.85;83.94;100293.53;5086243;28;20131;-29
2022/06/27 07:07:14;;;;;;;16.17;11.00;;;;;;;23.96;82.78;100291.41;5087405;28;20028;-30
2022/06/27 07:09:39;;;;;;;11.30;9.73;;;;;;;23.86;80.86;100280.72;5087329;28;20020;-31
2022/06/27 07:12:05;;;;;;;12.23;9.63;;;;;;;23.81;81.48;100278.09;5087537;28;20035;-29
2022/06/27 07:14:31;;;;;;;12.65;10.80;;;;;;;23.86;84.51;100262.47;5068882;28;20032;-31
2022/06/27 07:16:56;;;;;;;11.20;10.00;;;;;;;24.26;81.52;100281.00;5087348;28;20024;-31
2022/06/27 07:19:22;;;;;;;14.02;10.48;;;;;;;24.42;83.05;100267.84;5068749;28;20032;-30
2022/06/27 07:21:48;;;;;;;14.35;9.57;;;;;;;24.56;80.20;100281.44;5086965;28;20792;-29
2022/06/27 07:24:13;;;;;;;12.48;9.40;;;;;;;24.43;79.55;100275.69;5068597;28;20126;-31
2022/06/27 07:26:39;;;;;;;13.20;9.15;;;;;;;24.51;81.94;100271.47;5087336;28;20117;-31
2022/06/27 07:29:05;;;;;;;12.57;8.43;;;;;;;24.93;78.47;100265.84;5086792;28;20449;-29
2022/06/27 07:31:32;;;;;;;10.70;8.32;;;;;;;25.00;75.60;100280.69;5068863;28;20036;-32
2022/06/27 07:33:59;;;;;;;10.93;8.27;;;;;;;24.86;77.45;100261.66;5068978;28;20082;-35
2022/06/27 07:36:26;;;;;;;9.85;7.88;;;;;;;24.98;77.65;100285.66;5071887;28;20043;-28
2022/06/27 07:38:53;;;;;;;9.48;8.02;;;;;;;25.00;77.25;100260.78;5091462;28;20056;-30
2022/06/27 07:41:20;;;;;;;10.02;8.13;;;;;;;25.17;75.94;100282.75;5090950;28;20036;-29
2022/06/27 07:43:47;;;;;;;10.35;7.90;;;;;;;25.42;75.42;100277.78;5090953;28;20297;-29
2022/06/27 07:46:17;;;;;;;10.90;8.10;;;;;;;25.56;73.04;100283.13;5072842;28;20051;-29
2022/06/27 07:48:43;;;;;;;15.13;8.23;;;;;;;25.61;72.28;100277.53;5091247;28;20028;-32
2022/06/27 07:51:09;;;;;;;10.43;8.07;;;;;;;26.00;73.43;100287.66;5072358;28;20488;-29
2022/06/27 07:53:36;;;;;;;11.23;7.38;;;;;;;25.85;72.96;100283.41;5091056;28;20073;-29
2022/06/27 07:56:03;;;;;;;11.93;7.97;;;;;;;26.15;71.79;100288.34;5090915;28;20024;-32
2022/06/27 07:58:38;;;;;;;11.82;7.35;;;;;;;26.05;69.04;100284.81;5072321;28;20118;-31
2022/06/27 08:01:06;;;;;;;9.80;7.22;;;;;;;25.88;70.76;100265.56;5090736;28;20085;-34
2022/06/27 08:03:42;;;;;;;10.95;7.85;;;;;;;25.89;73.10;100264.47;5071969;28;20056;-31
2022/06/27 08:06:20;;;;;;;12.20;7.93;;;;;;;26.34;74.09;100279.88;5090814;28;20032;-32
2022/06/27 08:08:54;;;;;;;10.32;7.78;;;;;;;26.59;73.09;100275.56;5072134;28;20059;-31
2022/06/27 08:11:24;;;;;;;12.57;8.30;;;;;;;26.79;68.70;100277.66;5072268;28;20036;-31
2022/06/27 08:13:52;;;;;;;10.10;7.82;;;;;;;26.72;69.92;100291.00;5090404;28;20028;-32
2022/06/27 08:16:20;;;;;;;8.95;6.47;;;;;;;26.73;67.52;100273.47;5072102;28;20039;-31
2022/06/27 08:18:47;;;;;;;;;;;;;;;27.04;64.99;100280.69;5072453;28;20094;-32
2022/06/27 08:21:14;;;;;;;7.63;5.63;;;;;;;26.82;63.10;100279.75;5071497;28;19923;-34
2022/06/27 08:23:40;;;;;;;9.45;5.85;;;;;;;26.92;63.96;100283.28;5071985;28;20050;-32
2022/06/27 08:26:07;;;;;;;12.32;6.72;;;;;;;27.11;63.11;100275.50;5072120;28;20480;-29
2022/06/27 08:28:37;;;;;;;8.82;6.45;;;;;;;27.08;64.40;100269.91;5090335;28;20919;-29
2022/06/27 08:31:09;;;;;;;8.02;6.32;;;;;;;27.13;65.56;100276.00;5089989;28;20059;-34
2022/06/27 08:33:35;;;;;;;8.15;5.88;;;;;;;27.36;63.90;100270.31;5089955;28;20495;-32
2022/06/27 08:36:02;;;;;;;8.52;5.50;;;;;;;27.40;58.14;100274.03;5071648;28;20024;-29
2022/06/27 08:38:28;;;;;;;5.88;5.18;;;;;;;27.23;57.69;100255.72;5071577;28;20416;-31
2022/06/27 08:40:55;;;;;;;6.15;4.45;;;;;;;27.68;55.89;100268.94;5089865;28;20047;-34
2022/06/27 08:43:21;;;;;;;5.40;3.95;;;;;;;27.48;53.85;100247.75;5069742;28;20536;-30
2022/06/27 08:45:47;;;;;;;7.13;4.85;;;;;;;27.78;59.62;100268.56;5071205;28;20539;-31
2022/06/27 08:48:14;;;;;;;6.32;5.03;;;;;;;27.74;54.40;100269.56;5069728;28;20119;-33
2022/06/27 08:50:42;;;;;;;7.13;4.38;;;;;;;27.88;54.84;100277.59;5071346;28;20032;-29
2022/06/27 08:53:10;;;;;;;5.30;4.13;;;;;;;27.62;51.10;100267.50;5071004;28;20101;-31
2022/06/27 08:55:35;;;;;;;8.82;4.43;;;;;;;27.75;52.82;100265.69;5071028;28;20024;-31
2022/06/27 08:58:06;;;;;;;5.85;4.25;;;;;;;27.87;52.39;100256.78;5089280;28;20028;-29
2022/06/27 09:00:36;;;;;;;8.43;4.63;;;;;;;27.82;53.33;100257.75;5089052;28;20047;-31
2022/06/27 09:03:03;;;;;;;9.13;3.90;;;;;;;27.97;50.77;100272.84;5070098;28;20148;-31
2022/06/27 09:05:31;;;;;;;5.60;3.78;;;;;;;28.14;51.20;100266.47;5070971;28;20127;-35
2022/06/27 09:08:02;;;;;;;6.82;4.00;;;;;;;28.41;53.67;100260.47;5071031;28;20032;-29
2022/06/27 09:10:30;;;;;;;7.65;4.30;;;;;;;28.34;53.18;100265.69;5070950;28;20055;-34
2022/06/27 09:13:05;;;;;;;4.95;3.70;;;;;;;28.36;50.29;100263.41;5089144;28;20032;-30
2022/06/27 09:15:37;;;;;;;7.75;4.07;;;;;;;28.33;51.02;100275.03;5088734;28;20032;-29
2022/06/27 09:18:05;;;;;;;5.68;3.80;;;;;;;27.86;50.07;100247.72;5070839;28;20908;-29
2022/06/27 09:20:59;;;;;;;5.22;3.65;;;;;;;28.01;48.46;100263.66;5088035;28;20063;-33
2022/06/27 09:23:31;;;;;;;6.53;4.13;;;;;;;28.01;50.95;100244.47;5070287;28;20060;-31
2022/06/27 09:26:03;;;;;;;6.97;4.30;;;;;;;27.95;51.22;100248.53;5070477;28;20032;-30
2022/06/27 09:28:37;;;;;;;7.15;3.95;;;;;;;28.30;53.36;100237.31;5070426;28;20515;-32
2022/06/27 09:31:03;;;;;;;6.00;3.83;;;;;;;28.60;49.23;100246.28;5070398;28;20112;-35
2022/06/27 09:33:31;;;;;;;7.47;3.72;;;;;;;28.50;51.86;100224.75;5070637;28;20063;-34
2022/06/27 09:35:57;;;;;;;5.05;3.65;;;;;;;28.69;47.53;100227.03;5088548;28;20032;-33
2022/06/27 09:38:23;;;;;;;5.30;3.90;;;;;;;28.89;49.40;100241.03;5088532;28;20532;-30
2022/06/27 09:40:49;;;;;;;7.22;4.18;;;;;;;28.83;46.75;100238.50;5088619;28;20020;-29
2022/06/27 09:43:19;;;;;;;8.27;4.05;;;;;;;29.07;47.95;100239.72;5070107;28;20127;-34
2022/06/27 09:45:46;;;;;;;7.40;4.13;;;;;;;29.41;47.37;100221.25;5070255;28;20040;-30
2022/06/27 09:48:14;;;;;;;7.72;3.78;;;;;;;29.43;46.17;100227.22;5070076;28;20036;-30
2022/06/27 09:50:40;;;;;;;8.77;3.85;;;;;;;29.98;46.69;100225.84;5069764;28;20024;-31
2022/06/27 09:53:06;;;;;;;5.60;4.10;;;;;;;30.43;48.00;100224.06;5088379;28;20040;-30
2022/06/27 09:55:32;;;;;;;5.47;3.83;;;;;;;30.51;41.65;100231.38;5088458;28;20039;-30
2022/06/27 09:57:59;;;;;;;5.15;3.45;;;;;;;29.92;42.91;100229.97;5088161;28;20043;-32
2022/06/27 10:00:26;;;;;;;6.45;3.67;;;;;;;29.27;43.29;100240.81;5088622;28;20062;-29
2022/06/27 10:02:53;;;;;;;5.90;3.60;;;;;;;29.09;43.54;100234.69;5069160;28;20059;-29
2022/06/27 10:05:19;;;;;;;4.95;3.83;;;;;;;29.13;43.88;100216.41;5069359;28;20396;-31
2022/06/27 10:08:01;;;;;;;6.82;3.70;;;;;;;29.62;42.90;100227.44;5069504;28;20108;-29
2022/06/27 10:10:31;;;;;;;7.13;3.97;;;;;;;30.13;44.02;100227.06;5088016;28;20028;-31
2022/06/27 10:13:01;;;;;;;5.60;3.30;;;;;;;30.63;41.05;100222.25;5088005;28;20178;-30
2022/06/27 10:15:33;;;;;;;7.88;3.20;;;;;;;30.81;40.33;100220.81;5087785;28;20067;-35
2022/06/27 10:18:01;;;;;;;6.18;3.65;;;;;;;30.59;39.86;100210.34;5069013;28;20028;-29
2022/06/27 10:20:27;;;;;;;6.72;3.40;;;;;;;30.03;40.14;100211.06;5069775;28;20046;-32
2022/06/27 10:23:04;;;;;;;6.70;3.40;;;;;;;30.27;38.24;100221.19;5087647;28;20539;-30
2022/06/27 10:25:29;;;;;;;6.28;3.40;;;;;;;30.79;40.22;100214.84;5087726;28;20032;-31
2022/06/27 10:28:10;;;;;;;5.65;3.35;;;;;;;31.05;37.11;100210.81;5087589;28;20032;-30
2022/06/27 10:30:44;;;;;;;5.25;3.67;;;;;;;31.24;37.98;100210.94;5087925;28;20035;-29
2022/06/27 10:33:30;;;;;;;5.82;3.08;;;;;;;31.30;36.21;100207.88;5069174;28;20811;-30
2022/06/27 10:35:57;;;;;;;6.95;3.35;;;;;;;31.36;37.38;100198.19;5073533;28;20044;-29
2022/06/27 10:38:24;;;;;;;7.53;3.77;;;;;;;31.23;38.72;100203.78;5069187;28;20036;-34
2022/06/27 10:40:51;;;;;;;6.07;3.03;;;;;;;31.41;37.83;100195.97;5069187;28;20269;-31
2022/06/27 10:43:37;;;;;;;6.90;3.00;;;;;;;31.58;38.45;100188.53;5068951;28;20048;-30
2022/06/27 10:46:11;;;;;;;5.32;2.97;;;;;;;31.60;36.23;100214.56;5087398;28;20050;-33
2022/06/27 10:48:42;;;;;;;5.75;3.08;;;;;;;31.71;37.25;100189.19;5087262;28;20031;-30
2022/06/27 10:51:32;;;;;;;6.82;3.30;;;;;;;31.76;36.89;100206.28;5087115;28;20035;-30
2022/06/27 10:54:03;;;;;;;5.80;3.50;;;;;;;31.57;38.55;100204.25;5058816;28;20046;-32
2022/06/27 10:56:35;;;;;;;6.85;3.35;;;;;;;31.77;38.60;100183.06;5087223;28;20024;-29
2022/06/27 10:59:06;;;;;;;5.72;3.10;;;;;;;31.56;35.97;100201.84;5068918;28;20035;-30
2022/06/27 11:01:32;;;;;;;5.35;3.08;;;;;;;30.98;35.21;100188.63;5068600;28;20040;-30
2022/06/27 11:03:59;;;;;;;3.95;3.03;;;;;;;31.15;36.93;100188.25;5068979;28;20487;-30
2022/06/27 11:06:25;;;;;;;5.53;3.30;;;;;;;31.33;37.49;100193.41;5069161;28;20058;-32
2022/06/27 11:08:53;;;;;;;7.50;3.63;;;;;;;31.75;36.35;100190.06;5069095;28;20877;-32
2022/06/27 11:11:25;;;;;;;53.25;9.77;;;;;;;31.63;38.27;100189.06;5068394;28;20115;-31
2022/06/27 11:13:57;;;;;;;5.22;2.90;;;;;;;31.56;36.62;100197.13;5087188;28;20028;-31
2022/06/27 11:16:33;;;;;;;7.35;3.03;;;;;;;31.34;36.59;100189.50;5068903;28;20036;-33
2022/06/27 11:19:03;;;;;;;6.38;3.30;;;;;;;30.79;36.67;100184.56;5069116;28;20492;-29
2022/06/27 11:21:35;;;;;;;5.30;3.30;;;;;;;30.67;37.86;100179.13;5068992;28;20077;-35
2022/06/27 11:24:13;;;;;;;5.28;3.17;;;;;;;30.40;36.78;100166.97;5068729;28;20050;-31